createdAt,value
2016-10-30T00:00:28.772Z,1024.02
2016-10-30T00:01:28.755Z,1024
2016-10-30T00:02:28.740Z,1024
2016-10-30T00:03:28.725Z,1024.04
2016-10-30T00:04:28.708Z,1024.01
2016-10-30T00:05:28.690Z,1023.98
2016-10-30T00:06:28.680Z,1023.97
2016-10-30T00:07:28.659Z,1023.97
2016-10-30T00:08:28.642Z,1024
2016-10-30T00:09:28.627Z,1024
2016-10-30T00:10:28.609Z,1023.98
2016-10-30T00:11:28.593Z,1023.96
2016-10-30T00:12:28.576Z,1023.95
2016-10-30T00:13:28.561Z,1023.92
2016-10-30T00:14:28.545Z,1023.96
2016-10-30T00:15:28.529Z,1023.96
2016-10-30T00:16:28.512Z,1023.95
2016-10-30T00:17:28.496Z,1023.9
2016-10-30T00:18:28.479Z,1023.91
2016-10-30T00:19:28.462Z,1023.91
2016-10-30T00:20:28.447Z,1023.9
2016-10-30T00:21:28.432Z,1023.88
2016-10-30T00:22:28.414Z,1023.88
2016-10-30T00:23:28.399Z,1023.86
2016-10-30T00:24:28.382Z,1023.89
2016-10-30T00:25:28.366Z,1023.89
2016-10-30T00:26:28.349Z,1023.86
2016-10-30T00:27:28.331Z,1023.88
2016-10-30T00:28:28.315Z,1023.84
2016-10-30T00:29:28.300Z,1023.84
2016-10-30T00:30:28.284Z,1023.82
2016-10-30T00:31:28.269Z,1023.8
2016-10-30T00:32:28.251Z,1023.77
2016-10-30T00:33:28.235Z,1023.74
2016-10-30T00:34:28.217Z,1023.75
2016-10-30T00:35:28.203Z,1023.79
2016-10-30T00:36:28.186Z,1023.74
2016-10-30T00:37:28.169Z,1023.71
2016-10-30T00:38:28.153Z,1023.66
2016-10-30T00:39:28.137Z,1023.67
2016-10-30T00:40:28.119Z,1023.64
2016-10-30T00:41:28.105Z,1023.63
2016-10-30T00:42:28.087Z,1023.64
2016-10-30T00:43:28.073Z,1023.62
2016-10-30T00:44:28.056Z,1023.63
2016-10-30T00:45:28.039Z,1023.64
2016-10-30T00:46:28.024Z,1023.61
2016-10-30T00:47:28.010Z,1023.62
2016-10-30T00:48:27.989Z,1023.63
2016-10-30T00:49:27.976Z,1023.65
2016-10-30T00:50:27.957Z,1023.66
2016-10-30T00:51:27.940Z,1023.67
2016-10-30T00:52:27.924Z,1023.65
2016-10-30T00:53:27.909Z,1023.67
2016-10-30T00:54:27.892Z,1023.71
2016-10-30T00:55:27.877Z,1023.69
2016-10-30T00:56:27.859Z,1023.64
2016-10-30T00:57:27.844Z,1023.62
2016-10-30T00:58:27.828Z,1023.64
2016-10-30T00:59:27.813Z,1023.67
2016-10-30T01:00:27.796Z,1023.65
2016-10-30T01:01:27.781Z,1023.65
2016-10-30T01:02:27.764Z,1023.6
2016-10-30T01:03:27.750Z,1023.65
2016-10-30T01:04:27.734Z,1023.64
2016-10-30T01:05:27.715Z,1023.69
2016-10-30T01:06:27.699Z,1023.65
2016-10-30T01:07:27.683Z,1023.69
2016-10-30T01:08:27.667Z,1023.67
2016-10-30T01:09:27.650Z,1023.73
2016-10-30T01:10:27.634Z,1023.75
2016-10-30T01:11:27.619Z,1023.77
2016-10-30T01:12:27.604Z,1023.78
2016-10-30T01:13:27.587Z,1023.79
2016-10-30T01:14:27.569Z,1023.82
2016-10-30T01:15:27.554Z,1023.8
2016-10-30T01:16:27.538Z,1023.8
2016-10-30T01:17:27.522Z,1023.78
2016-10-30T01:18:27.506Z,1023.83
2016-10-30T01:19:27.492Z,1023.86
2016-10-30T01:20:27.473Z,1023.84
2016-10-30T01:21:27.457Z,1023.86
2016-10-30T01:22:27.444Z,1023.86
2016-10-30T01:23:27.426Z,1023.91
2016-10-30T01:24:27.410Z,1023.93
2016-10-30T01:25:27.394Z,1023.94
2016-10-30T01:26:27.380Z,1023.93
2016-10-30T01:27:27.369Z,1023.9
2016-10-30T01:28:27.396Z,1023.9
2016-10-30T01:29:27.329Z,1023.9
2016-10-30T01:30:27.314Z,1023.83
2016-10-30T01:31:27.298Z,1023.81
2016-10-30T01:32:27.281Z,1023.8
2016-10-30T01:33:27.416Z,1023.81
2016-10-30T01:34:27.249Z,1023.77
2016-10-30T01:35:27.232Z,1023.67
2016-10-30T01:36:27.216Z,1023.72
2016-10-30T01:37:27.200Z,1023.7
2016-10-30T01:38:27.186Z,1023.7
2016-10-30T01:39:27.170Z,1023.66
2016-10-30T01:40:27.153Z,1023.64
2016-10-30T01:41:27.138Z,1023.58
2016-10-30T01:42:27.120Z,1023.6
2016-10-30T01:43:27.106Z,1023.56
2016-10-30T01:44:27.090Z,1023.58
2016-10-30T01:45:27.074Z,1023.6
2016-10-30T01:46:27.056Z,1023.59
2016-10-30T01:47:27.041Z,1023.57
2016-10-30T01:48:27.025Z,1023.57
2016-10-30T01:49:27.011Z,1023.6
2016-10-30T01:50:26.994Z,1023.53
2016-10-30T01:51:26.978Z,1023.58
2016-10-30T01:52:26.963Z,1023.57
2016-10-30T01:53:26.946Z,1023.59
2016-10-30T01:54:26.930Z,1023.59
2016-10-30T01:55:26.913Z,1023.61
2016-10-30T01:56:26.898Z,1023.59
2016-10-30T01:57:26.881Z,1023.54
2016-10-30T01:58:27.067Z,1023.51
2016-10-30T01:59:26.849Z,1023.49
2016-10-30T02:00:26.835Z,1023.51
2016-10-30T02:01:26.818Z,1023.52
2016-10-30T02:02:26.801Z,1023.52
2016-10-30T02:03:26.786Z,1023.47
2016-10-30T02:04:26.769Z,1023.52
2016-10-30T02:05:26.753Z,1023.51
2016-10-30T02:06:26.736Z,1023.5
2016-10-30T02:07:39.457Z,1023.56
2016-10-30T02:08:26.703Z,1023.56
2016-10-30T02:09:26.687Z,1023.55
2016-10-30T02:10:26.671Z,1023.53
2016-10-30T02:11:26.655Z,1023.52
2016-10-30T02:12:26.639Z,1023.47
2016-10-30T02:13:26.622Z,1023.46
2016-10-30T02:14:26.607Z,1023.49
2016-10-30T02:15:26.590Z,1023.5
2016-10-30T02:16:26.575Z,1023.5
2016-10-30T02:17:26.558Z,1023.5
2016-10-30T02:18:26.542Z,1023.53
2016-10-30T02:19:26.528Z,1023.5
2016-10-30T02:20:26.510Z,1023.44
2016-10-30T02:21:26.494Z,1023.49
2016-10-30T02:22:26.479Z,1023.46
2016-10-30T02:23:26.460Z,1023.44
2016-10-30T02:24:26.447Z,1023.42
2016-10-30T02:25:26.429Z,1023.39
2016-10-30T02:26:26.414Z,1023.36
2016-10-30T02:27:26.397Z,1023.36
2016-10-30T02:28:26.381Z,1023.38
2016-10-30T02:29:26.365Z,1023.43
2016-10-30T02:30:26.348Z,1023.43
2016-10-30T02:31:26.333Z,1023.38
2016-10-30T02:32:26.317Z,1023.37
2016-10-30T02:33:26.299Z,1023.38
2016-10-30T02:34:26.284Z,1023.34
2016-10-30T02:35:26.270Z,1023.33
2016-10-30T02:36:26.255Z,1023.3
2016-10-30T02:37:26.235Z,1023.33
2016-10-30T02:38:26.220Z,1023.29
2016-10-30T02:39:26.203Z,1023.31
2016-10-30T02:40:26.188Z,1023.26
2016-10-30T02:41:26.173Z,1023.28
2016-10-30T02:42:26.156Z,1023.23
2016-10-30T02:43:26.139Z,1023.21
2016-10-30T02:44:26.123Z,1023.21
2016-10-30T02:45:26.107Z,1023.16
2016-10-30T02:46:26.090Z,1023.14
2016-10-30T02:47:26.073Z,1023.17
2016-10-30T02:48:26.056Z,1023.16
2016-10-30T02:49:26.041Z,1023.13
2016-10-30T02:50:26.026Z,1023.11
2016-10-30T02:51:26.014Z,1023.11
2016-10-30T02:52:25.992Z,1023.06
2016-10-30T02:53:25.975Z,1023.08
2016-10-30T02:54:25.961Z,1023.06
2016-10-30T02:55:25.943Z,1023.04
2016-10-30T02:56:25.928Z,1023.04
2016-10-30T02:57:25.913Z,1022.99
2016-10-30T02:58:25.896Z,1022.99
2016-10-30T02:59:25.880Z,1023.01
2016-10-30T03:00:25.863Z,1023
2016-10-30T03:01:25.846Z,1022.96
2016-10-30T03:02:25.831Z,1022.98
2016-10-30T03:03:25.814Z,1022.89
2016-10-30T03:04:25.798Z,1022.91
2016-10-30T03:05:25.782Z,1022.89
2016-10-30T03:06:25.764Z,1022.9
2016-10-30T03:07:25.747Z,1022.89
2016-10-30T03:08:25.736Z,1022.95
2016-10-30T03:09:25.716Z,1022.98
2016-10-30T03:10:25.699Z,1022.95
2016-10-30T03:11:25.683Z,1022.95
2016-10-30T03:12:25.666Z,1022.92
2016-10-30T03:13:25.652Z,1022.92
2016-10-30T03:14:25.634Z,1022.9
2016-10-30T03:15:25.621Z,1022.95
2016-10-30T03:16:25.600Z,1022.98
2016-10-30T03:17:25.587Z,1022.97
2016-10-30T03:18:25.572Z,1022.98
2016-10-30T03:19:25.551Z,1023.01
2016-10-30T03:20:25.536Z,1023.04
2016-10-30T03:21:25.519Z,1023.04
2016-10-30T03:22:25.501Z,1023.06
2016-10-30T03:23:25.486Z,1023.06
2016-10-30T03:24:25.470Z,1023.09
2016-10-30T03:25:25.455Z,1023.05
2016-10-30T03:26:25.437Z,1023.07
2016-10-30T03:27:25.420Z,1023.09
2016-10-30T03:28:25.403Z,1023.07
2016-10-30T03:29:25.387Z,1023.09
2016-10-30T03:30:25.369Z,1023.14
2016-10-30T03:31:25.354Z,1023.14
2016-10-30T03:32:25.338Z,1023.18
2016-10-30T03:33:25.321Z,1023.16
2016-10-30T03:34:25.304Z,1023.17
2016-10-30T03:35:25.437Z,1023.18
2016-10-30T03:36:25.271Z,1023.16
2016-10-30T03:37:25.259Z,1023.13
2016-10-30T03:38:25.237Z,1023.16
2016-10-30T03:39:25.220Z,1023.16
2016-10-30T03:40:25.202Z,1023.1
2016-10-30T03:41:25.187Z,1023.14
2016-10-30T03:42:25.169Z,1023.12
2016-10-30T03:43:25.152Z,1023.08
2016-10-30T03:44:25.136Z,1023.14
2016-10-30T03:45:25.120Z,1023.16
2016-10-30T03:46:25.106Z,1023.17
2016-10-30T03:47:25.085Z,1023.18
2016-10-30T03:48:25.068Z,1023.16
2016-10-30T03:49:25.086Z,1023.2
2016-10-30T03:50:25.036Z,1023.23
2016-10-30T03:51:25.018Z,1023.19
2016-10-30T03:52:25.002Z,1023.23
2016-10-30T03:53:24.986Z,1023.21
2016-10-30T03:54:24.967Z,1023.2
2016-10-30T03:55:24.953Z,1023.14
2016-10-30T03:56:24.935Z,1023.15
2016-10-30T03:57:24.917Z,1023.2
2016-10-30T03:58:25.111Z,1023.22
2016-10-30T03:59:24.885Z,1023.23
2016-10-30T04:00:24.869Z,1023.22
2016-10-30T04:01:24.850Z,1023.21
2016-10-30T04:02:24.833Z,1023.22
2016-10-30T04:03:24.815Z,1023.19
2016-10-30T04:04:24.800Z,1023.16
2016-10-30T04:05:24.783Z,1023.12
2016-10-30T04:06:24.765Z,1023.1
2016-10-30T04:07:24.749Z,1023.15
2016-10-30T04:08:24.733Z,1023.18
2016-10-30T04:09:24.718Z,1023.22
2016-10-30T04:10:24.700Z,1023.26
2016-10-30T04:11:24.683Z,1023.26
2016-10-30T04:12:24.665Z,1023.25
2016-10-30T04:13:24.650Z,1023.25
2016-10-30T04:14:24.632Z,1023.28
2016-10-30T04:15:24.616Z,1023.21
2016-10-30T04:16:24.599Z,1023.23
2016-10-30T04:17:24.581Z,1023.23
2016-10-30T04:18:24.566Z,1023.16
2016-10-30T04:19:24.547Z,1023.18
2016-10-30T04:20:24.532Z,1023.15
2016-10-30T04:21:24.515Z,1023.17
2016-10-30T04:22:24.499Z,1023.2
2016-10-30T04:23:24.481Z,1023.16
2016-10-30T04:24:24.464Z,1023.14
2016-10-30T04:25:24.446Z,1023.13
2016-10-30T04:26:24.431Z,1023.15
2016-10-30T04:27:24.414Z,1023.12
2016-10-30T04:28:24.400Z,1023.16
2016-10-30T04:29:24.380Z,1023.16
2016-10-30T04:30:24.364Z,1023.16
2016-10-30T04:31:24.346Z,1023.13
2016-10-30T04:32:24.329Z,1023.14
2016-10-30T04:33:24.320Z,1023.12
2016-10-30T04:34:24.296Z,1023.08
2016-10-30T04:35:24.279Z,1023.03
2016-10-30T04:36:24.264Z,1023.06
2016-10-30T04:37:24.248Z,1023.05
2016-10-30T04:38:24.230Z,1023.07
2016-10-30T04:39:24.215Z,1023.05
2016-10-30T04:40:24.196Z,1023.04
2016-10-30T04:41:24.179Z,1022.93
2016-10-30T04:42:24.162Z,1022.92
2016-10-30T04:43:24.143Z,1022.99
2016-10-30T04:44:24.129Z,1023.03
2016-10-30T04:45:24.117Z,1023.03
2016-10-30T04:46:24.247Z,1023.06
2016-10-30T04:47:24.076Z,1023.05
2016-10-30T04:48:24.060Z,1023.08
2016-10-30T04:49:24.043Z,1023.08
2016-10-30T04:50:24.035Z,1023.13
2016-10-30T04:51:24.012Z,1023.15
2016-10-30T04:52:23.990Z,1023.13
2016-10-30T04:53:23.974Z,1023.12
2016-10-30T04:54:23.957Z,1023.15
2016-10-30T04:55:23.941Z,1023.19
2016-10-30T04:56:23.922Z,1023.18
2016-10-30T04:57:23.905Z,1023.13
2016-10-30T04:58:23.890Z,1023.15
2016-10-30T04:59:23.873Z,1023.14
2016-10-30T05:00:23.856Z,1023.06
2016-10-30T05:01:23.839Z,1023.04
2016-10-30T05:02:23.821Z,1022.86
2016-10-30T05:03:23.804Z,1022.71
2016-10-30T05:04:23.786Z,1022.65
2016-10-30T05:05:23.771Z,1022.67
2016-10-30T05:06:23.753Z,1022.76
2016-10-30T05:07:23.736Z,1022.82
2016-10-30T05:08:23.719Z,1022.86
2016-10-30T05:09:23.702Z,1022.9
2016-10-30T05:10:23.684Z,1022.89
2016-10-30T05:11:23.666Z,1022.87
2016-10-30T05:12:23.650Z,1022.78
2016-10-30T05:13:23.633Z,1022.74
2016-10-30T05:14:23.616Z,1022.71
2016-10-30T05:15:23.600Z,1022.64
2016-10-30T05:16:23.633Z,1022.59
2016-10-30T05:17:23.565Z,1022.56
2016-10-30T05:18:23.547Z,1022.5
2016-10-30T05:19:23.530Z,1022.45
2016-10-30T05:20:23.513Z,1022.4
2016-10-30T05:21:23.496Z,1022.38
2016-10-30T05:22:23.485Z,1022.43
2016-10-30T05:23:23.462Z,1022.43
2016-10-30T05:24:23.448Z,1022.47
2016-10-30T05:25:23.429Z,1022.48
2016-10-30T05:26:23.410Z,1022.46
2016-10-30T05:27:23.393Z,1022.38
2016-10-30T05:28:23.375Z,1022.34
2016-10-30T05:29:23.357Z,1022.3
2016-10-30T05:30:23.343Z,1022.24
2016-10-30T05:31:23.326Z,1022.19
2016-10-30T05:32:23.357Z,1022.14
2016-10-30T05:33:23.290Z,1022.05
2016-10-30T05:34:23.277Z,1022.06
2016-10-30T05:35:23.256Z,1022.06
2016-10-30T05:36:23.237Z,1022.02
2016-10-30T05:37:23.372Z,1022
2016-10-30T05:38:23.205Z,1022
2016-10-30T05:39:23.185Z,1022
2016-10-30T05:40:23.169Z,1021.94
2016-10-30T05:41:23.151Z,1021.94
2016-10-30T05:42:23.133Z,1022.02
2016-10-30T05:43:23.119Z,1022.09
2016-10-30T05:44:23.100Z,1022.13
2016-10-30T05:45:23.083Z,1022.08
2016-10-30T05:46:23.065Z,1022.06
2016-10-30T05:47:23.054Z,1022.08
2016-10-30T05:48:23.029Z,1022.04
2016-10-30T05:49:23.014Z,1022.04
2016-10-30T05:50:22.997Z,1022.07
2016-10-30T05:51:22.979Z,1022.05
2016-10-30T05:52:22.959Z,1021.98
2016-10-30T05:53:22.942Z,1022
2016-10-30T05:54:22.924Z,1021.97
2016-10-30T05:55:22.908Z,1021.97
2016-10-30T05:56:22.889Z,1021.99
2016-10-30T05:57:22.874Z,1022.02
2016-10-30T05:58:22.856Z,1022.02
2016-10-30T05:59:22.840Z,1022.07
2016-10-30T06:00:22.819Z,1022.19
2016-10-30T06:01:22.803Z,1022.18
2016-10-30T06:02:22.784Z,1022.17
2016-10-30T06:03:22.771Z,1022.2
2016-10-30T06:04:22.752Z,1022.24
2016-10-30T06:05:22.732Z,1022.25
2016-10-30T06:06:22.715Z,1022.23
2016-10-30T06:07:22.697Z,1022.26
2016-10-30T06:08:22.683Z,1022.31
2016-10-30T06:09:22.663Z,1022.33
2016-10-30T06:10:22.645Z,1022.36
2016-10-30T06:11:22.629Z,1022.36
2016-10-30T06:12:22.611Z,1022.37
2016-10-30T06:13:22.594Z,1022.37
2016-10-30T06:14:22.579Z,1022.32
2016-10-30T06:15:22.558Z,1022.32
2016-10-30T06:16:22.545Z,1022.39
2016-10-30T06:17:22.524Z,1022.43
2016-10-30T06:18:22.506Z,1022.49
2016-10-30T06:19:22.490Z,1022.48
2016-10-30T06:20:22.474Z,1022.46
2016-10-30T06:21:22.455Z,1022.43
2016-10-30T06:22:22.438Z,1022.41
2016-10-30T06:23:22.571Z,1022.45
2016-10-30T06:24:22.401Z,1022.49
2016-10-30T06:25:22.385Z,1022.54
2016-10-30T06:26:22.370Z,1022.56
2016-10-30T06:27:22.349Z,1022.6
2016-10-30T06:28:22.332Z,1022.62
2016-10-30T06:29:22.316Z,1022.63
2016-10-30T06:30:22.299Z,1022.62
2016-10-30T06:31:22.282Z,1022.63
2016-10-30T06:32:22.265Z,1022.68
2016-10-30T06:33:22.245Z,1022.72
2016-10-30T06:34:22.230Z,1022.71
2016-10-30T06:35:22.214Z,1022.74
2016-10-30T06:36:22.193Z,1022.73
2016-10-30T06:37:22.177Z,1022.73
2016-10-30T06:38:22.157Z,1022.79
2016-10-30T06:39:22.141Z,1022.77
2016-10-30T06:40:22.124Z,1022.81
2016-10-30T06:41:22.108Z,1022.84
2016-10-30T06:42:22.089Z,1022.8
2016-10-30T06:43:22.073Z,1022.82
2016-10-30T06:44:22.056Z,1022.84
2016-10-30T06:45:22.038Z,1022.85
2016-10-30T06:46:22.028Z,1022.95
2016-10-30T06:47:22.005Z,1022.95
2016-10-30T06:48:21.986Z,1022.97
2016-10-30T06:49:22.018Z,1022.94
2016-10-30T06:50:22.002Z,1022.99
2016-10-30T06:51:21.937Z,1023.09
2016-10-30T06:52:21.918Z,1023.07
2016-10-30T06:53:21.901Z,1023.05
2016-10-30T06:54:21.883Z,1023.05
2016-10-30T06:55:21.866Z,1023.01
2016-10-30T06:56:21.853Z,1023.01
2016-10-30T06:57:21.832Z,1023.02
2016-10-30T06:58:21.814Z,1023.06
2016-10-30T06:59:21.798Z,1023.08
2016-10-30T07:00:21.781Z,1023.08
2016-10-30T07:01:21.763Z,1023.09
2016-10-30T07:02:21.746Z,1023.08
2016-10-30T07:03:21.730Z,1023.04
2016-10-30T07:04:21.710Z,1022.99
2016-10-30T07:05:21.693Z,1022.99
2016-10-30T07:06:21.679Z,1022.97
2016-10-30T07:07:21.661Z,1022.96
2016-10-30T07:08:21.643Z,1022.97
2016-10-30T07:09:21.636Z,1022.95
2016-10-30T07:10:21.610Z,1022.99
2016-10-30T07:11:21.593Z,1022.98
2016-10-30T07:12:21.577Z,1022.98
2016-10-30T07:13:21.560Z,1023
2016-10-30T07:14:21.543Z,1022.95
2016-10-30T07:15:21.527Z,1022.99
2016-10-30T07:16:21.510Z,1022.98
2016-10-30T07:17:21.493Z,1023
2016-10-30T07:18:21.475Z,1022.98
2016-10-30T07:19:21.458Z,1022.94
2016-10-30T07:20:21.443Z,1022.97
2016-10-30T07:21:21.426Z,1022.94
2016-10-30T07:22:21.409Z,1022.89
2016-10-30T07:23:21.393Z,1022.77
2016-10-30T07:24:21.377Z,1022.81
2016-10-30T07:25:21.361Z,1022.89
2016-10-30T07:26:21.344Z,1022.93
2016-10-30T07:27:21.325Z,1023.02
2016-10-30T07:28:21.312Z,1023.08
2016-10-30T07:29:21.293Z,1023.1
2016-10-30T07:30:21.275Z,1023.15
2016-10-30T07:31:21.265Z,1023.12
2016-10-30T07:32:21.244Z,1023.07
2016-10-30T07:33:21.226Z,1023.06
2016-10-30T07:34:21.208Z,1023.1
2016-10-30T07:35:21.197Z,1023.13
2016-10-30T07:36:21.176Z,1023.21
2016-10-30T07:37:21.158Z,1023.16
2016-10-30T07:38:21.143Z,1023.16
2016-10-30T07:39:21.128Z,1023.22
2016-10-30T07:40:21.110Z,1023.25
2016-10-30T07:41:21.093Z,1023.29
2016-10-30T07:42:21.077Z,1023.23
2016-10-30T07:43:21.073Z,1023.25
2016-10-30T07:44:21.043Z,1023.22
2016-10-30T07:45:21.030Z,1023.25
2016-10-30T07:46:21.011Z,1023.25
2016-10-30T07:47:20.998Z,1023.22
2016-10-30T07:48:20.984Z,1023.16
2016-10-30T07:49:20.964Z,1023.19
2016-10-30T07:50:20.945Z,1023.25
2016-10-30T07:51:20.929Z,1023.27
2016-10-30T07:52:20.911Z,1023.39
2016-10-30T07:53:20.895Z,1023.38
2016-10-30T07:54:20.931Z,1023.4
2016-10-30T07:55:20.874Z,1023.41
2016-10-30T07:56:20.849Z,1023.35
2016-10-30T07:57:20.832Z,1023.35
2016-10-30T07:58:20.817Z,1023.31
2016-10-30T07:59:21.002Z,1023.3
2016-10-30T08:00:20.787Z,1023.34
2016-10-30T08:01:20.767Z,1023.32
2016-10-30T08:02:20.749Z,1023.34
2016-10-30T08:03:20.733Z,1023.32
2016-10-30T08:04:20.721Z,1023.37
2016-10-30T08:05:20.717Z,1023.42
2016-10-30T08:06:20.687Z,1023.36
2016-10-30T08:07:20.670Z,1023.39
2016-10-30T08:08:20.655Z,1023.36
2016-10-30T08:09:20.638Z,1023.38
2016-10-30T08:10:20.623Z,1023.43
2016-10-30T08:11:20.605Z,1023.45
2016-10-30T08:12:20.603Z,1023.45
2016-10-30T08:13:20.573Z,1023.45
2016-10-30T08:14:20.557Z,1023.43
2016-10-30T08:15:20.541Z,1023.46
2016-10-30T08:16:20.528Z,1023.54
2016-10-30T08:17:20.509Z,1023.54
2016-10-30T08:18:20.495Z,1023.48
2016-10-30T08:19:20.480Z,1023.45
2016-10-30T08:20:20.467Z,1023.45
2016-10-30T08:21:20.459Z,1023.43
2016-10-30T08:22:20.431Z,1023.49
2016-10-30T08:23:20.418Z,1023.51
2016-10-30T08:24:20.401Z,1023.51
2016-10-30T08:25:20.384Z,1023.54
2016-10-30T08:26:20.371Z,1023.54
2016-10-30T08:27:20.355Z,1023.53
2016-10-30T08:28:20.390Z,1023.5
2016-10-30T08:29:20.325Z,1023.54
2016-10-30T08:30:20.361Z,1023.57
2016-10-30T08:31:20.296Z,1023.49
2016-10-30T08:32:20.284Z,1023.51
2016-10-30T08:33:20.265Z,1023.49
2016-10-30T08:34:20.251Z,1023.51
2016-10-30T08:35:20.236Z,1023.47
2016-10-30T08:36:20.220Z,1023.49
2016-10-30T08:37:20.207Z,1023.51
2016-10-30T08:38:20.193Z,1023.46
2016-10-30T08:39:20.176Z,1023.44
2016-10-30T08:40:20.160Z,1023.5
2016-10-30T08:41:20.144Z,1023.53
2016-10-30T08:42:20.130Z,1023.57
2016-10-30T08:43:20.117Z,1023.64
2016-10-30T08:44:20.102Z,1023.69
2016-10-30T08:45:20.085Z,1023.66
2016-10-30T08:46:20.073Z,1023.7
2016-10-30T08:47:20.056Z,1023.66
2016-10-30T08:48:20.040Z,1023.66
2016-10-30T08:49:20.026Z,1023.6
2016-10-30T08:50:20.012Z,1023.59
2016-10-30T08:51:19.996Z,1023.58
2016-10-30T08:52:19.983Z,1023.61
2016-10-30T08:53:19.971Z,1023.57
2016-10-30T08:54:19.953Z,1023.58
2016-10-30T08:55:19.941Z,1023.63
2016-10-30T08:56:19.925Z,1023.7
2016-10-30T08:57:19.910Z,1023.73
2016-10-30T08:58:19.898Z,1023.66
2016-10-30T08:59:19.882Z,1023.65
2016-10-30T09:00:19.869Z,1023.71
2016-10-30T09:01:19.853Z,1023.74
2016-10-30T09:02:19.839Z,1023.73
2016-10-30T09:03:19.827Z,1023.77
2016-10-30T09:04:19.811Z,1023.75
2016-10-30T09:05:19.798Z,1023.73
2016-10-30T09:06:19.785Z,1023.76
2016-10-30T09:07:19.767Z,1023.72
2016-10-30T09:08:19.755Z,1023.73
2016-10-30T09:09:19.741Z,1023.75
2016-10-30T09:10:19.726Z,1023.75
2016-10-30T09:11:19.712Z,1023.75
2016-10-30T09:12:19.697Z,1023.71
2016-10-30T09:13:19.686Z,1023.69
2016-10-30T09:14:19.671Z,1023.66
2016-10-30T09:15:19.655Z,1023.64
2016-10-30T09:16:19.641Z,1023.64
2016-10-30T09:17:19.631Z,1023.65
2016-10-30T09:18:19.615Z,1023.69
2016-10-30T09:19:19.602Z,1023.7
2016-10-30T09:20:19.595Z,1023.74
2016-10-30T09:21:19.573Z,1023.79
2016-10-30T09:22:19.611Z,1023.81
2016-10-30T09:23:19.547Z,1023.8
2016-10-30T09:24:19.533Z,1023.76
2016-10-30T09:25:19.522Z,1023.8
2016-10-30T09:26:19.504Z,1023.78
2016-10-30T09:27:19.490Z,1023.73
2016-10-30T09:28:19.479Z,1023.65
2016-10-30T09:29:19.464Z,1023.59
2016-10-30T09:30:19.450Z,1023.58
2016-10-30T09:31:19.436Z,1023.55
2016-10-30T09:32:19.424Z,1023.56
2016-10-30T09:33:19.459Z,1023.56
2016-10-30T09:34:19.396Z,1023.56
2016-10-30T09:35:19.385Z,1023.58
2016-10-30T09:36:19.372Z,1023.6
2016-10-30T09:37:19.357Z,1023.64
2016-10-30T09:38:19.345Z,1023.64
2016-10-30T09:39:19.330Z,1023.64
2016-10-30T09:40:19.327Z,1023.64
2016-10-30T09:41:19.312Z,1023.68
2016-10-30T09:42:19.300Z,1023.71
2016-10-30T09:43:19.279Z,1023.71
2016-10-30T09:44:19.268Z,1023.76
2016-10-30T09:45:19.253Z,1023.78
2016-10-30T09:46:19.247Z,1023.77
2016-10-30T09:47:19.229Z,1023.8
2016-10-30T09:48:19.218Z,1023.78
2016-10-30T09:49:19.199Z,1023.78
2016-10-30T09:50:19.187Z,1023.79
2016-10-30T09:51:19.324Z,1023.78
2016-10-30T09:52:19.161Z,1023.76
2016-10-30T09:53:19.150Z,1023.77
2016-10-30T09:54:19.138Z,1023.77
2016-10-30T09:55:19.124Z,1023.84
2016-10-30T09:56:19.113Z,1023.83
2016-10-30T09:57:19.099Z,1023.81
2016-10-30T09:58:19.086Z,1023.77
2016-10-30T09:59:19.277Z,1023.77
2016-10-30T10:00:19.060Z,1023.73
2016-10-30T10:01:19.048Z,1023.69
2016-10-30T10:02:19.038Z,1023.72
2016-10-30T10:03:19.022Z,1023.73
2016-10-30T10:04:19.009Z,1023.69
2016-10-30T10:05:18.996Z,1023.68
2016-10-30T10:06:18.985Z,1023.65
2016-10-30T10:07:18.973Z,1023.66
2016-10-30T10:08:18.962Z,1023.63
2016-10-30T10:09:18.946Z,1023.62
2016-10-30T10:10:18.933Z,1023.63
2016-10-30T10:11:18.923Z,1023.61
2016-10-30T10:12:18.910Z,1023.61
2016-10-30T10:13:18.901Z,1023.58
2016-10-30T10:14:18.885Z,1023.56
2016-10-30T10:15:18.874Z,1023.57
2016-10-30T10:16:18.861Z,1023.59
2016-10-30T10:17:18.859Z,1023.62
2016-10-30T10:18:18.837Z,1023.6
2016-10-30T10:19:18.822Z,1023.6
2016-10-30T10:20:18.811Z,1023.57
2016-10-30T10:21:18.798Z,1023.53
2016-10-30T10:22:18.787Z,1023.57
2016-10-30T10:23:18.775Z,1023.61
2016-10-30T10:24:18.767Z,1023.62
2016-10-30T10:25:18.751Z,1023.61
2016-10-30T10:26:18.743Z,1023.58
2016-10-30T10:27:18.726Z,1023.59
2016-10-30T10:28:18.714Z,1023.58
2016-10-30T10:29:18.704Z,1023.57
2016-10-30T10:30:18.691Z,1023.55
2016-10-30T10:31:18.680Z,1023.6
2016-10-30T10:32:18.669Z,1023.57
2016-10-30T10:33:18.667Z,1023.6
2016-10-30T10:34:18.645Z,1023.56
2016-10-30T10:35:18.636Z,1023.62
2016-10-30T10:36:18.623Z,1023.57
2016-10-30T10:37:18.614Z,1023.61
2016-10-30T10:38:18.597Z,1023.57
2016-10-30T10:39:18.586Z,1023.54
2016-10-30T10:40:18.585Z,1023.52
2016-10-30T10:41:18.567Z,1023.57
2016-10-30T10:42:18.552Z,1023.59
2016-10-30T10:43:18.541Z,1023.56
2016-10-30T10:44:18.577Z,1023.54
2016-10-30T10:45:18.517Z,1023.53
2016-10-30T10:46:18.504Z,1023.55
2016-10-30T10:47:18.655Z,1023.51
2016-10-30T10:48:18.488Z,1023.54
2016-10-30T10:49:18.470Z,1023.57
2016-10-30T10:50:18.458Z,1023.57
2016-10-30T10:51:18.447Z,1023.57
2016-10-30T10:52:18.588Z,1023.54
2016-10-30T10:53:18.425Z,1023.56
2016-10-30T10:54:18.416Z,1023.51
2016-10-30T10:55:18.435Z,1023.45
2016-10-30T10:56:18.394Z,1023.41
2016-10-30T10:57:18.536Z,1023.39
2016-10-30T10:58:18.371Z,1023.36
2016-10-30T10:59:18.361Z,1023.33
2016-10-30T11:00:18.349Z,1023.29
2016-10-30T11:01:18.339Z,1023.32
2016-10-30T11:02:18.579Z,1023.31
2016-10-30T11:03:18.322Z,1023.29
2016-10-30T11:04:18.310Z,1023.28
2016-10-30T11:05:18.297Z,1023.3
2016-10-30T11:06:18.289Z,1023.22
2016-10-30T11:07:18.300Z,1023.2
2016-10-30T11:08:18.269Z,1023.22
2016-10-30T11:09:18.253Z,1023.2
2016-10-30T11:10:18.245Z,1023.2
2016-10-30T11:11:18.233Z,1023.24
2016-10-30T11:12:18.372Z,1023.21
2016-10-30T11:13:18.213Z,1023.21
2016-10-30T11:14:18.203Z,1023.23
2016-10-30T11:15:18.192Z,1023.22
2016-10-30T11:16:18.182Z,1023.23
2016-10-30T11:17:18.372Z,1023.18
2016-10-30T11:18:18.161Z,1023.19
2016-10-30T11:19:18.166Z,1023.19
2016-10-30T11:20:18.140Z,1023.22
2016-10-30T11:21:18.130Z,1023.19
2016-10-30T11:22:18.133Z,1023.19
2016-10-30T11:23:18.111Z,1023.18
2016-10-30T11:24:18.100Z,1023.16
2016-10-30T11:25:18.090Z,1023.12
2016-10-30T11:26:18.080Z,1023.09
2016-10-30T11:27:18.071Z,1023.1
2016-10-30T11:28:18.062Z,1023.09
2016-10-30T11:29:18.049Z,1023.13
2016-10-30T11:30:18.041Z,1023.09
2016-10-30T11:31:18.031Z,1023.11
2016-10-30T11:32:18.020Z,1023.1
2016-10-30T11:33:18.009Z,1023.05
2016-10-30T11:34:18.000Z,1023.12
2016-10-30T11:35:17.992Z,1023.11
2016-10-30T11:36:17.985Z,1023.09
2016-10-30T11:37:17.968Z,1023.12
2016-10-30T11:38:17.959Z,1023.14
2016-10-30T11:39:17.955Z,1023.13
2016-10-30T11:40:17.940Z,1023.14
2016-10-30T11:41:17.930Z,1023.12
2016-10-30T11:42:17.920Z,1023.13
2016-10-30T11:43:17.913Z,1023.07
2016-10-30T11:44:17.904Z,1023.06
2016-10-30T11:45:17.893Z,1023.09
2016-10-30T11:46:17.884Z,1023.09
2016-10-30T11:47:17.875Z,1023.1
2016-10-30T11:48:17.869Z,1023.08
2016-10-30T11:49:17.857Z,1023.1
2016-10-30T11:50:17.851Z,1023.07
2016-10-30T11:51:17.840Z,1023.03
2016-10-30T11:52:17.832Z,1023.04
2016-10-30T11:53:17.827Z,1022.98
2016-10-30T11:54:17.817Z,1022.93
2016-10-30T11:55:17.812Z,1022.88
2016-10-30T11:56:17.806Z,1022.89
2016-10-30T11:57:17.800Z,1022.88
2016-10-30T11:58:17.793Z,1022.86
2016-10-30T11:59:17.986Z,1022.9
2016-10-30T12:00:17.777Z,1022.85
2016-10-30T12:01:17.772Z,1022.88
2016-10-30T12:02:17.768Z,1022.88
2016-10-30T12:03:17.755Z,1022.86
2016-10-30T12:04:17.748Z,1022.86
2016-10-30T12:05:17.745Z,1022.85
2016-10-30T12:06:17.738Z,1022.85
2016-10-30T12:07:17.728Z,1022.83
2016-10-30T12:08:17.724Z,1022.83